createdAt,value
2019-02-04T00:00:57.870Z,70.20
2019-02-04T00:01:50.550Z,55.80
2019-02-04T00:02:50.571Z,62.40
2019-02-04T00:03:50.535Z,64.20
2019-02-04T00:04:50.517Z,59.10
2019-02-04T00:05:50.507Z,72.50
2019-02-04T00:06:50.528Z,67.80
2019-02-04T00:07:57.652Z,66.80
2019-02-04T00:08:57.559Z,66.00
2019-02-04T00:09:57.560Z,63.00
2019-02-04T00:10:59.386Z,65.80
2019-02-04T00:11:57.988Z,67.30
2019-02-04T00:12:57.481Z,70.50
2019-02-04T00:13:57.545Z,60.90
2019-02-04T00:14:57.478Z,60.90
2019-02-04T00:15:57.451Z,53.70
2019-02-04T00:16:50.420Z,62.00
2019-02-04T00:17:50.400Z,59.30
2019-02-04T00:18:57.425Z,55.00
2019-02-04T00:19:57.468Z,62.20
2019-02-04T00:20:57.510Z,70.00
2019-02-04T00:21:50.347Z,61.60
2019-02-04T00:22:50.361Z,57.20
2019-02-04T00:23:50.315Z,54.10
2019-02-04T00:24:50.306Z,57.10
2019-02-04T00:25:50.298Z,60.70
2019-02-04T00:26:51.900Z,59.50
2019-02-04T00:27:57.670Z,60.40
2019-02-04T00:28:50.294Z,64.70
2019-02-04T00:29:50.247Z,61.80
2019-02-04T00:30:50.238Z,62.50
2019-02-04T00:31:50.230Z,62.50
2019-02-04T00:32:50.215Z,52.50
2019-02-04T00:33:50.249Z,57.50
2019-02-04T00:34:50.192Z,63.60
2019-02-04T00:35:50.185Z,61.30
2019-02-04T00:36:50.177Z,62.50
2019-02-04T00:37:50.162Z,56.30
2019-02-04T00:38:50.174Z,54.20
2019-02-04T00:39:50.169Z,63.50
2019-02-04T00:40:50.154Z,61.00
2019-02-04T00:41:50.127Z,48.70
2019-02-04T00:42:50.116Z,54.20
2019-02-04T00:43:50.134Z,55.40
2019-02-04T00:44:50.147Z,53.70
2019-02-04T00:45:50.078Z,58.10
2019-02-04T00:46:52.139Z,59.70
2019-02-04T00:47:57.146Z,59.80
2019-02-04T00:48:57.236Z,64.00
2019-02-04T00:49:57.150Z,53.30
2019-02-04T00:50:57.121Z,50.80
2019-02-04T00:51:57.136Z,65.20
2019-02-04T00:52:57.144Z,56.60
2019-02-04T00:53:57.067Z,55.70
2019-02-04T00:54:57.310Z,59.70
2019-02-04T00:55:49.970Z,57.90
2019-02-04T00:56:49.960Z,56.90
2019-02-04T00:57:57.068Z,54.30
2019-02-04T00:58:57.046Z,58.00
2019-02-04T00:59:57.868Z,59.10
2019-02-04T01:00:57.054Z,53.30
2019-02-04T01:01:57.117Z,55.80
2019-02-04T01:02:57.065Z,56.20
2019-02-04T01:03:49.925Z,58.80
2019-02-04T01:04:49.870Z,62.30
2019-02-04T01:05:56.982Z,54.60
2019-02-04T01:06:49.885Z,57.90
2019-02-04T01:07:57.147Z,56.80
2019-02-04T01:08:49.841Z,53.50
2019-02-04T01:09:49.856Z,49.50
2019-02-04T01:10:49.814Z,47.50
2019-02-04T01:11:49.814Z,57.30
2019-02-04T01:12:49.798Z,58.20
2019-02-04T01:13:49.779Z,53.80
2019-02-04T01:14:49.777Z,57.00
2019-02-04T01:15:49.758Z,57.50
2019-02-04T01:16:49.733Z,54.90
2019-02-04T01:17:49.743Z,55.10
2019-02-04T01:18:49.720Z,53.70
2019-02-04T01:19:49.759Z,56.60
2019-02-04T01:20:49.689Z,54.10
2019-02-04T01:21:49.685Z,48.30
2019-02-04T01:22:57.053Z,56.30
2019-02-04T01:23:49.656Z,56.40
2019-02-04T01:24:49.649Z,55.30
2019-02-04T01:25:49.651Z,55.90
2019-02-04T01:26:56.670Z,48.70
2019-02-04T01:27:49.647Z,54.70
2019-02-04T01:28:49.604Z,58.40
2019-02-04T01:29:49.602Z,52.60
2019-02-04T01:30:49.590Z,53.50
2019-02-04T01:31:49.569Z,54.60
2019-02-04T01:32:49.565Z,60.20
2019-02-04T01:33:49.556Z,58.30
2019-02-04T01:34:49.539Z,58.30
2019-02-04T01:35:49.531Z,59.70
2019-02-04T01:36:49.522Z,58.40
2019-02-04T01:37:49.502Z,56.20
2019-02-04T01:38:49.505Z,57.80
2019-02-04T01:39:49.494Z,50.20
2019-02-04T01:40:49.475Z,59.40
2019-02-04T01:41:56.573Z,57.20
2019-02-04T01:42:49.534Z,60.60
2019-02-04T01:43:49.467Z,60.80
2019-02-04T01:44:49.420Z,57.00
2019-02-04T01:45:49.426Z,62.00
2019-02-04T01:46:51.579Z,63.20
2019-02-04T01:47:49.391Z,57.30
2019-02-04T01:48:49.395Z,61.60
2019-02-04T01:49:49.410Z,59.20
2019-02-04T01:50:49.382Z,62.20
2019-02-04T01:51:49.351Z,64.70
2019-02-04T01:52:49.377Z,58.60
2019-02-04T01:53:49.335Z,60.10
2019-02-04T01:54:56.613Z,69.40
2019-02-04T01:55:50.090Z,65.80
2019-02-04T01:56:49.309Z,63.90
2019-02-04T01:57:49.290Z,63.60
2019-02-04T01:58:49.270Z,57.90
2019-02-04T01:59:49.328Z,56.10
2019-02-04T02:00:49.269Z,62.30
2019-02-04T02:01:49.244Z,58.30
2019-02-04T02:02:49.263Z,59.50
2019-02-04T02:03:49.225Z,62.20
2019-02-04T02:04:49.211Z,65.80
2019-02-04T02:05:49.209Z,53.90
2019-02-04T02:06:49.195Z,58.30
2019-02-04T02:07:49.186Z,56.60
2019-02-04T02:08:49.226Z,60.30
2019-02-04T02:09:49.222Z,60.30
2019-02-04T02:10:49.172Z,57.80
2019-02-04T02:11:56.236Z,60.80
2019-02-04T02:12:56.192Z,55.90
2019-02-04T02:13:49.104Z,63.60
2019-02-04T02:14:56.168Z,63.20
2019-02-04T02:15:56.217Z,61.20
2019-02-04T02:16:56.175Z,66.40
2019-02-04T02:17:49.101Z,58.90
2019-02-04T02:18:56.124Z,53.70
2019-02-04T02:19:56.162Z,55.10
2019-02-04T02:20:49.069Z,58.40
2019-02-04T02:21:49.024Z,58.80
2019-02-04T02:22:49.010Z,64.30
2019-02-04T02:23:49.024Z,62.70
2019-02-04T02:24:48.993Z,59.70
2019-02-04T02:25:48.977Z,59.70
2019-02-04T02:26:49.003Z,65.40
2019-02-04T02:27:48.970Z,59.80
2019-02-04T02:28:48.950Z,64.40
2019-02-04T02:29:48.932Z,67.60
2019-02-04T02:30:48.922Z,64.90
2019-02-04T02:31:48.943Z,64.90
2019-02-04T02:32:48.900Z,67.10
2019-02-04T02:33:48.892Z,57.20
2019-02-04T02:34:48.886Z,57.80
2019-02-04T02:35:48.882Z,63.10
2019-02-04T02:36:48.893Z,60.50
2019-02-04T02:37:48.876Z,62.40
2019-02-04T02:38:48.873Z,65.00
2019-02-04T02:39:48.825Z,66.00
2019-02-04T02:40:48.852Z,60.00
2019-02-04T02:41:48.805Z,58.60
2019-02-04T02:42:48.839Z,57.90
2019-02-04T02:43:48.790Z,61.40
2019-02-04T02:44:48.777Z,62.70
2019-02-04T02:45:48.761Z,56.60
2019-02-04T02:46:48.744Z,59.80
2019-02-04T02:47:48.805Z,56.30
2019-02-04T02:48:48.728Z,55.70
2019-02-04T02:49:48.719Z,53.30
2019-02-04T02:50:48.713Z,56.10
2019-02-04T02:51:48.703Z,54.10
2019-02-04T02:52:48.718Z,58.60
2019-02-04T02:53:48.739Z,59.20
2019-02-04T02:54:48.674Z,55.90
2019-02-04T02:55:48.647Z,61.70
2019-02-04T02:56:48.652Z,56.40
2019-02-04T02:57:48.649Z,58.10
2019-02-04T02:58:48.638Z,51.70
2019-02-04T02:59:56.188Z,58.30
2019-02-04T03:00:55.671Z,55.80
2019-02-04T03:01:55.679Z,56.70
2019-02-04T03:02:48.576Z,54.50
2019-02-04T03:03:48.576Z,57.20
2019-02-04T03:04:48.557Z,55.60
2019-02-04T03:05:48.547Z,55.10
2019-02-04T03:06:48.535Z,54.10
2019-02-04T03:07:48.598Z,58.10
2019-02-04T03:08:48.569Z,56.90
2019-02-04T03:09:48.501Z,54.00
2019-02-04T03:10:48.506Z,54.80
2019-02-04T03:11:48.482Z,60.00
2019-02-04T03:12:48.467Z,59.50
2019-02-04T03:13:48.500Z,59.10
2019-02-04T03:14:48.494Z,62.80
2019-02-04T03:15:55.547Z,59.70
2019-02-04T03:16:48.481Z,61.20
2019-02-04T03:17:52.071Z,59.50
2019-02-04T03:18:48.393Z,60.80
2019-02-04T03:19:48.433Z,61.40
2019-02-04T03:20:48.371Z,62.30
2019-02-04T03:21:48.359Z,62.40
2019-02-04T03:22:48.382Z,58.90
2019-02-04T03:23:48.359Z,55.50
2019-02-04T03:24:48.395Z,62.40
2019-02-04T03:25:48.352Z,59.60
2019-02-04T03:26:48.347Z,68.40
2019-02-04T03:27:48.308Z,60.80
2019-02-04T03:28:48.296Z,63.60
2019-02-04T03:29:48.288Z,69.40
2019-02-04T03:30:48.294Z,62.50
2019-02-04T03:31:48.259Z,60.90
2019-02-04T03:32:48.267Z,68.80
2019-02-04T03:33:48.241Z,63.00
2019-02-04T03:34:48.249Z,61.60
2019-02-04T03:35:48.279Z,62.40
2019-02-04T03:36:48.202Z,62.20
2019-02-04T03:37:48.205Z,69.10
2019-02-04T03:38:48.255Z,64.40
2019-02-04T03:39:48.166Z,60.40
2019-02-04T03:40:48.213Z,64.60
2019-02-04T03:41:48.167Z,65.30
2019-02-04T03:42:48.227Z,67.40
2019-02-04T03:43:48.122Z,62.40
2019-02-04T03:44:48.140Z,67.10
2019-02-04T03:45:48.106Z,66.70
2019-02-04T03:46:48.108Z,66.40
2019-02-04T03:47:48.075Z,64.00
2019-02-04T03:48:48.086Z,61.00
2019-02-04T03:49:48.051Z,58.80
2019-02-04T03:50:55.095Z,60.90
2019-02-04T03:51:55.439Z,61.30
2019-02-04T03:52:55.095Z,67.70
2019-02-04T03:53:48.046Z,53.10
2019-02-04T03:54:48.018Z,58.30
2019-02-04T03:55:55.175Z,57.50
2019-02-04T03:56:47.975Z,57.10
2019-02-04T03:57:47.982Z,51.50
2019-02-04T03:58:47.957Z,58.20
2019-02-04T03:59:47.969Z,66.10
2019-02-04T04:00:47.943Z,67.00
2019-02-04T04:01:55.034Z,57.60
2019-02-04T04:02:55.034Z,62.70
2019-02-04T04:03:55.131Z,73.30
2019-02-04T04:04:54.962Z,63.00
2019-02-04T04:05:47.876Z,57.70
2019-02-04T04:06:47.868Z,53.50
2019-02-04T04:07:47.866Z,55.90
2019-02-04T04:08:47.856Z,64.90
2019-02-04T04:09:47.840Z,63.60
2019-02-04T04:10:47.832Z,66.80
2019-02-04T04:11:47.836Z,63.20
2019-02-04T04:12:47.800Z,65.20
2019-02-04T04:13:47.818Z,66.50
2019-02-04T04:14:47.792Z,62.30
2019-02-04T04:15:47.774Z,72.40
2019-02-04T04:16:47.759Z,62.00
2019-02-04T04:17:47.772Z,62.30
2019-02-04T04:18:47.747Z,69.10
2019-02-04T04:19:47.752Z,66.40
2019-02-04T04:20:47.724Z,69.50
2019-02-04T04:21:47.700Z,67.70
2019-02-04T04:22:47.694Z,66.00
2019-02-04T04:23:47.706Z,69.10
2019-02-04T04:24:47.680Z,62.10
2019-02-04T04:25:47.692Z,65.70
2019-02-04T04:26:47.668Z,64.10
2019-02-04T04:27:47.638Z,62.40
2019-02-04T04:28:47.654Z,65.60
2019-02-04T04:29:47.632Z,67.30
2019-02-04T04:30:47.623Z,63.30
2019-02-04T04:31:47.591Z,65.90
2019-02-04T04:32:54.655Z,68.20
2019-02-04T04:33:54.709Z,62.90
2019-02-04T04:34:55.138Z,70.00
2019-02-04T04:35:54.606Z,66.40
2019-02-04T04:36:54.631Z,69.70
2019-02-04T04:37:47.524Z,65.60
2019-02-04T04:38:54.668Z,70.80
2019-02-04T04:39:54.559Z,67.40
2019-02-04T04:40:47.511Z,66.90
2019-02-04T04:41:54.535Z,66.40
2019-02-04T04:42:54.534Z,61.30
2019-02-04T04:43:54.547Z,60.40
2019-02-04T04:44:54.532Z,69.30
2019-02-04T04:45:54.846Z,62.20
2019-02-04T04:46:54.490Z,65.20
2019-02-04T04:47:54.483Z,67.50
2019-02-04T04:48:47.420Z,73.90
2019-02-04T04:49:54.447Z,68.60
2019-02-04T04:50:54.953Z,70.30
2019-02-04T04:51:54.421Z,71.50
2019-02-04T04:52:54.443Z,67.50
2019-02-04T04:53:54.410Z,68.30
2019-02-04T04:54:54.392Z,72.80
2019-02-04T04:55:54.549Z,67.30
2019-02-04T04:56:54.570Z,70.70
2019-02-04T04:57:54.429Z,58.50
2019-02-04T04:58:47.314Z,61.50
2019-02-04T04:59:47.303Z,63.30
2019-02-04T05:00:47.270Z,71.70
2019-02-04T05:01:47.278Z,72.50
2019-02-04T05:02:47.271Z,70.50
2019-02-04T05:03:47.237Z,67.10
2019-02-04T05:04:54.347Z,77.40
2019-02-04T05:05:54.299Z,70.70
2019-02-04T05:06:47.227Z,74.50
2019-02-04T05:07:47.212Z,73.60
2019-02-04T05:08:47.201Z,68.20
2019-02-04T05:09:47.183Z,71.50
2019-02-04T05:10:47.174Z,66.80
2019-02-04T05:11:47.165Z,67.40
2019-02-04T05:12:47.151Z,70.70
2019-02-04T05:13:47.147Z,68.80
2019-02-04T05:14:47.143Z,70.90
2019-02-04T05:15:47.154Z,67.90
2019-02-04T05:16:47.111Z,64.20
2019-02-04T05:17:47.108Z,67.20
2019-02-04T05:18:47.121Z,68.80
2019-02-04T05:19:47.115Z,72.70
2019-02-04T05:20:47.068Z,71.90
2019-02-04T05:21:54.135Z,75.80
2019-02-04T05:22:54.211Z,70.70
2019-02-04T05:23:47.034Z,71.10
2019-02-04T05:24:47.018Z,67.30
2019-02-04T05:25:47.009Z,73.70
2019-02-04T05:26:46.997Z,70.90
2019-02-04T05:27:46.983Z,68.50
2019-02-04T05:28:46.974Z,72.50
2019-02-04T05:29:54.097Z,71.20
2019-02-04T05:30:46.949Z,73.40
2019-02-04T05:31:54.061Z,71.30
2019-02-04T05:32:54.049Z,72.50
2019-02-04T05:33:54.304Z,76.50
2019-02-04T05:34:46.908Z,73.70
2019-02-04T05:35:54.086Z,74.20
2019-02-04T05:36:53.911Z,71.10
2019-02-04T05:37:53.945Z,80.80
2019-02-04T05:38:54.412Z,74.10
2019-02-04T05:39:53.932Z,62.60
2019-02-04T05:40:53.916Z,74.80
2019-02-04T05:41:53.976Z,75.40
2019-02-04T05:42:53.902Z,66.80
2019-02-04T05:43:53.923Z,81.00
2019-02-04T05:44:54.539Z,76.50
2019-02-04T05:45:53.973Z,72.00
2019-02-04T05:46:46.782Z,76.80
2019-02-04T05:47:46.767Z,66.20
2019-02-04T05:48:49.480Z,81.30
2019-02-04T05:49:46.819Z,75.40
2019-02-04T05:50:46.743Z,72.70
2019-02-04T05:51:46.717Z,72.30
2019-02-04T05:52:46.724Z,71.00
2019-02-04T05:53:46.704Z,72.90
2019-02-04T05:54:46.697Z,75.30
2019-02-04T05:55:46.710Z,75.10
2019-02-04T05:56:46.676Z,75.10
2019-02-04T05:57:46.783Z,70.50
2019-02-04T05:58:46.726Z,71.70
2019-02-04T05:59:46.650Z,71.20
2019-02-04T06:00:46.620Z,72.60
2019-02-04T06:01:46.612Z,68.50
2019-02-04T06:02:46.613Z,75.70
2019-02-04T06:03:46.599Z,70.90
2019-02-04T06:04:46.583Z,76.80
2019-02-04T06:05:46.569Z,79.60
2019-02-04T06:06:46.568Z,75.60
2019-02-04T06:07:46.553Z,74.70
2019-02-04T06:08:46.529Z,74.50
2019-02-04T06:09:46.532Z,76.60
2019-02-04T06:10:46.536Z,73.00
2019-02-04T06:11:46.495Z,67.10
2019-02-04T06:12:46.530Z,72.50
2019-02-04T06:13:46.484Z,71.20
2019-02-04T06:14:46.462Z,77.50
2019-02-04T06:15:46.459Z,72.50
2019-02-04T06:16:46.463Z,72.60
2019-02-04T06:17:46.452Z,71.80
2019-02-04T06:18:46.467Z,76.40
2019-02-04T06:19:46.441Z,71.00
2019-02-04T06:20:46.399Z,73.60
2019-02-04T06:21:46.429Z,73.50
2019-02-04T06:22:46.389Z,72.00
2019-02-04T06:23:46.375Z,68.90
2019-02-04T06:24:46.388Z,71.60
2019-02-04T06:25:46.352Z,70.40
2019-02-04T06:26:46.329Z,72.40
2019-02-04T06:27:53.388Z,71.90
2019-02-04T06:28:46.316Z,78.10
2019-02-04T06:29:46.290Z,75.60
2019-02-04T06:30:53.623Z,71.20
2019-02-04T06:31:53.349Z,82.10
2019-02-04T06:32:46.260Z,76.50
2019-02-04T06:33:46.252Z,71.70
2019-02-04T06:34:46.250Z,70.90
2019-02-04T06:35:53.663Z,68.80
2019-02-04T06:36:53.285Z,68.80
2019-02-04T06:37:54.406Z,78.20
2019-02-04T06:38:53.291Z,72.90
2019-02-04T06:39:46.191Z,76.60
2019-02-04T06:40:46.205Z,76.00
2019-02-04T06:41:46.163Z,77.50
2019-02-04T06:42:46.164Z,80.70
2019-02-04T06:43:46.147Z,74.50
2019-02-04T06:44:46.144Z,72.60
2019-02-04T06:45:46.239Z,78.10
2019-02-04T06:46:46.137Z,71.90
2019-02-04T06:47:46.093Z,71.80
2019-02-04T06:48:46.092Z,72.80
2019-02-04T06:49:46.082Z,70.80
2019-02-04T06:50:46.061Z,71.50
2019-02-04T06:51:46.206Z,71.20
2019-02-04T06:52:46.045Z,70.80
2019-02-04T06:53:46.053Z,68.20
2019-02-04T06:54:46.033Z,67.50
2019-02-04T06:55:46.039Z,67.00
2019-02-04T06:56:46.166Z,64.10
2019-02-04T06:57:45.998Z,64.90
2019-02-04T06:58:46.002Z,64.60
2019-02-04T06:59:46.049Z,64.80
2019-02-04T07:00:45.968Z,62.60
2019-02-04T07:01:46.039Z,65.20
2019-02-04T07:02:45.976Z,61.50
2019-02-04T07:03:45.968Z,64.80
2019-02-04T07:04:45.926Z,60.70
2019-02-04T07:05:45.903Z,60.20
2019-02-04T07:06:45.887Z,60.50
2019-02-04T07:07:45.909Z,60.10
2019-02-04T07:08:45.879Z,59.00
2019-02-04T07:09:45.867Z,60.10
2019-02-04T07:10:45.855Z,57.70
2019-02-04T07:11:45.848Z,56.20
2019-02-04T07:12:45.847Z,54.40
2019-02-04T07:13:45.871Z,60.80
2019-02-04T07:14:45.809Z,62.90
2019-02-04T07:15:52.896Z,60.00
2019-02-04T07:16:45.783Z,61.90
2019-02-04T07:17:45.782Z,62.80
2019-02-04T07:18:45.769Z,61.00
2019-02-04T07:19:45.742Z,62.50
2019-02-04T07:20:45.750Z,62.20
2019-02-04T07:21:45.728Z,66.10
2019-02-04T07:22:45.712Z,63.60
2019-02-04T07:23:45.714Z,62.30
2019-02-04T07:24:45.708Z,63.70
2019-02-04T07:25:45.685Z,60.70
2019-02-04T07:26:45.682Z,63.10
2019-02-04T07:27:45.674Z,62.30
2019-02-04T07:28:45.667Z,57.00
2019-02-04T07:29:45.642Z,64.20
2019-02-04T07:30:45.625Z,62.50
2019-02-04T07:31:45.611Z,59.90
2019-02-04T07:32:45.604Z,62.90
2019-02-04T07:33:45.588Z,64.10
2019-02-04T07:34:45.778Z,59.90
2019-02-04T07:35:45.601Z,60.90
2019-02-04T07:36:45.614Z,61.10
2019-02-04T07:37:45.549Z,62.50
2019-02-04T07:38:45.539Z,56.90
2019-02-04T07:39:45.560Z,57.80
2019-02-04T07:40:45.516Z,60.60
2019-02-04T07:41:45.521Z,54.30
2019-02-04T07:42:45.493Z,61.20
2019-02-04T07:43:45.484Z,61.70
2019-02-04T07:44:45.496Z,59.00
2019-02-04T07:45:45.521Z,55.10
2019-02-04T07:46:45.449Z,56.70
2019-02-04T07:47:45.465Z,57.00
2019-02-04T07:48:45.456Z,54.80
2019-02-04T07:49:45.421Z,57.00
2019-02-04T07:50:45.578Z,51.60
2019-02-04T07:51:45.390Z,53.60
2019-02-04T07:52:45.427Z,52.00
2019-02-04T07:53:45.375Z,51.60
2019-02-04T07:54:45.395Z,47.30
2019-02-04T07:55:45.369Z,57.50
2019-02-04T07:56:45.344Z,57.00
2019-02-04T07:57:52.553Z,49.50
2019-02-04T07:58:45.321Z,50.30
2019-02-04T07:59:45.361Z,51.70
2019-02-04T08:00:45.556Z,54.60
2019-02-04T08:01:52.638Z,54.30
2019-02-04T08:02:45.326Z,57.20
2019-02-04T08:03:45.274Z,52.30
2019-02-04T08:04:45.245Z,53.20
2019-02-04T08:05:45.296Z,48.20
2019-02-04T08:06:45.248Z,54.40
2019-02-04T08:07:45.213Z,52.10
2019-02-04T08:08:45.259Z,51.80
2019-02-04T08:09:45.201Z,56.70
2019-02-04T08:10:45.186Z,52.20
2019-02-04T08:11:45.198Z,57.50
2019-02-04T08:13:01.121Z,56.00
2019-02-04T08:13:52.226Z,60.60
2019-02-04T08:14:45.440Z,57.10
2019-02-04T08:15:45.134Z,64.00
2019-02-04T08:16:45.125Z,62.70
2019-02-04T08:17:45.121Z,61.00
2019-02-04T08:18:52.205Z,64.70
2019-02-04T08:19:47.380Z,56.80
2019-02-04T08:20:45.105Z,63.50
2019-02-04T08:21:45.062Z,59.80
2019-02-04T08:22:45.075Z,64.00
2019-02-04T08:23:45.049Z,60.50
2019-02-04T08:24:45.055Z,57.20
2019-02-04T08:25:45.034Z,55.90
2019-02-04T08:26:45.040Z,58.30
2019-02-04T08:27:45.000Z,55.60
2019-02-04T08:28:45.051Z,50.20
2019-02-04T08:29:45.028Z,50.30
2019-02-04T08:30:45.031Z,50.90
2019-02-04T08:31:44.999Z,46.30
2019-02-04T08:32:44.972Z,47.90
2019-02-04T08:33:44.957Z,43.00
2019-02-04T08:34:52.813Z,41.80
2019-02-04T08:35:45.095Z,43.90
2019-02-04T08:36:46.459Z,37.40
2019-02-04T08:37:51.982Z,34.30
2019-02-04T08:38:51.925Z,36.30
2019-02-04T08:39:51.893Z,37.60
2019-02-04T08:40:51.920Z,40.00
2019-02-04T08:41:52.058Z,48.40
2019-02-04T08:42:51.897Z,45.50
2019-02-04T08:43:51.900Z,48.40
2019-02-04T08:44:51.894Z,48.40
2019-02-04T08:45:51.888Z,45.50
2019-02-04T08:46:51.878Z,45.30
2019-02-04T08:47:44.782Z,34.80
2019-02-04T08:48:44.790Z,34.40
2019-02-04T08:49:58.375Z,37.30
2019-02-04T08:50:45.747Z,31.80
2019-02-04T08:51:51.820Z,33.70
2019-02-04T08:52:44.730Z,35.00
2019-02-04T08:53:44.718Z,36.20
2019-02-04T08:54:44.695Z,41.10
2019-02-04T08:55:44.694Z,38.40
2019-02-04T08:56:44.699Z,36.60
2019-02-04T08:57:44.742Z,37.50
2019-02-04T08:58:44.696Z,44.00
2019-02-04T08:59:44.675Z,42.10
2019-02-04T09:00:44.652Z,47.30
2019-02-04T09:01:44.626Z,43.40
2019-02-04T09:02:44.620Z,49.80
2019-02-04T09:03:44.611Z,51.30
2019-02-04T09:04:44.608Z,49.20
2019-02-04T09:05:44.586Z,49.90
2019-02-04T09:06:44.595Z,52.30
2019-02-04T09:07:44.576Z,49.20
2019-02-04T09:08:44.565Z,47.50
2019-02-04T09:09:44.543Z,43.00
2019-02-04T09:10:44.543Z,46.40
2019-02-04T09:11:44.531Z,47.80
2019-02-04T09:12:44.572Z,46.20
2019-02-04T09:13:51.732Z,49.90
2019-02-04T09:14:51.582Z,41.60
2019-02-04T09:15:51.653Z,42.10
2019-02-04T09:16:51.532Z,43.90
2019-02-04T09:17:44.445Z,44.20
2019-02-04T09:18:51.866Z,46.30
2019-02-04T09:19:51.542Z,48.00
2019-02-04T09:20:44.436Z,45.60
2019-02-04T09:21:44.445Z,42.90
2019-02-04T09:22:44.391Z,39.70
2019-02-04T09:23:44.379Z,38.70
2019-02-04T09:24:44.383Z,41.20
2019-02-04T09:25:44.358Z,37.20
2019-02-04T09:26:44.350Z,42.30
2019-02-04T09:27:44.346Z,42.30
2019-02-04T09:28:44.445Z,37.70
2019-02-04T09:29:44.354Z,34.90
2019-02-04T09:30:44.304Z,40.70
2019-02-04T09:31:44.305Z,39.80
2019-02-04T09:32:44.322Z,41.80
2019-02-04T09:33:51.388Z,39.80
2019-02-04T09:34:51.510Z,39.60
2019-02-04T09:35:44.250Z,41.60
2019-02-04T09:36:51.406Z,44.80
2019-02-04T09:37:44.225Z,45.20
2019-02-04T09:38:44.277Z,48.70
2019-02-04T09:39:46.403Z,50.00
2019-02-04T09:40:44.226Z,43.00
2019-02-04T09:41:44.181Z,50.60
2019-02-04T09:42:44.172Z,48.90
2019-02-04T09:43:44.193Z,50.40
2019-02-04T09:44:44.268Z,47.40
2019-02-04T09:45:44.139Z,51.10
2019-02-04T09:46:44.189Z,52.10
2019-02-04T09:47:44.154Z,48.50
2019-02-04T09:48:44.119Z,50.40
2019-02-04T09:49:44.112Z,50.70
2019-02-04T09:50:44.173Z,52.30
2019-02-04T09:51:44.091Z,54.30
2019-02-04T09:52:44.087Z,48.20
2019-02-04T09:53:44.070Z,56.20
2019-02-04T09:54:44.038Z,58.30
2019-02-04T09:55:44.034Z,59.60
2019-02-04T09:56:44.042Z,86.50
2019-02-04T09:57:44.023Z,73.60
2019-02-04T09:58:44.016Z,96.10
2019-02-04T09:59:44.011Z,84.60
2019-02-04T10:00:43.975Z,77.20
2019-02-04T10:01:43.976Z,68.50
2019-02-04T10:02:43.969Z,68.60
2019-02-04T10:03:43.953Z,67.70
2019-02-04T10:04:43.940Z,59.00
2019-02-04T10:05:43.919Z,61.00
2019-02-04T10:06:43.953Z,59.60
2019-02-04T10:07:43.918Z,56.10
2019-02-04T10:08:43.897Z,56.70
2019-02-04T10:09:43.885Z,54.70
2019-02-04T10:10:43.877Z,53.60
2019-02-04T10:11:43.895Z,62.50
2019-02-04T10:12:43.903Z,62.50
2019-02-04T10:13:43.877Z,66.20
2019-02-04T10:14:43.839Z,62.30
2019-02-04T10:15:45.808Z,62.00
2019-02-04T10:16:43.809Z,68.00
2019-02-04T10:17:43.820Z,69.50
2019-02-04T10:18:43.798Z,64.20
2019-02-04T10:19:43.807Z,54.40
2019-02-04T10:20:43.762Z,51.40
2019-02-04T10:21:43.816Z,53.60
2019-02-04T10:22:43.773Z,49.50
2019-02-04T10:23:43.729Z,49.50
2019-02-04T10:24:43.771Z,42.50
2019-02-04T10:25:43.753Z,48.90
2019-02-04T10:26:43.752Z,52.50
2019-02-04T10:27:43.709Z,45.50
2019-02-04T10:28:43.690Z,54.40
2019-02-04T10:29:43.689Z,52.30
2019-02-04T10:30:43.654Z,48.00
2019-02-04T10:31:43.685Z,45.90
2019-02-04T10:32:44.399Z,50.60
2019-02-04T10:33:43.644Z,43.60
2019-02-04T10:34:43.681Z,45.50
2019-02-04T10:35:43.594Z,45.20
2019-02-04T10:36:43.626Z,52.30
2019-02-04T10:37:43.576Z,56.80
2019-02-04T10:38:43.583Z,47.40
2019-02-04T10:39:43.620Z,52.60
2019-02-04T10:40:43.631Z,49.10
2019-02-04T10:41:43.532Z,50.70
2019-02-04T10:42:43.527Z,51.80
2019-02-04T10:43:43.579Z,55.80
2019-02-04T10:44:43.524Z,56.90
2019-02-04T10:45:43.501Z,57.80
2019-02-04T10:46:43.511Z,52.90
2019-02-04T10:47:43.492Z,50.80
2019-02-04T10:48:43.498Z,36.40
2019-02-04T10:49:43.503Z,44.70
2019-02-04T10:50:46.569Z,49.70
2019-02-04T10:51:50.533Z,46.20
2019-02-04T10:52:50.526Z,42.30
2019-02-04T10:53:43.403Z,45.20
2019-02-04T10:54:43.395Z,46.80
2019-02-04T10:55:43.399Z,45.20
2019-02-04T10:56:43.371Z,40.80
2019-02-04T10:57:43.356Z,49.60
2019-02-04T10:58:43.362Z,47.10
2019-02-04T10:59:50.981Z,42.80
2019-02-04T11:00:43.337Z,50.00
2019-02-04T11:01:50.458Z,41.00
2019-02-04T11:02:43.336Z,38.30
2019-02-04T11:03:43.315Z,37.90
2019-02-04T11:04:43.297Z,40.00
2019-02-04T11:05:43.288Z,39.10
2019-02-04T11:06:43.276Z,36.20
2019-02-04T11:07:50.527Z,41.30
2019-02-04T11:08:43.235Z,40.00
2019-02-04T11:09:43.231Z,39.00
2019-02-04T11:10:43.233Z,35.60
2019-02-04T11:11:43.208Z,32.90
2019-02-04T11:12:43.223Z,35.30
2019-02-04T11:13:43.165Z,37.90
2019-02-04T11:14:43.211Z,36.70
2019-02-04T11:15:43.159Z,39.70
2019-02-04T11:16:43.305Z,38.10
2019-02-04T11:17:43.181Z,34.10
2019-02-04T11:18:43.154Z,36.20
2019-02-04T11:19:43.117Z,32.40
2019-02-04T11:20:43.241Z,40.30
2019-02-04T11:21:43.092Z,37.10
2019-02-04T11:22:50.191Z,44.30
2019-02-04T11:23:43.084Z,38.30
2019-02-04T11:24:43.062Z,35.10
2019-02-04T11:25:43.040Z,36.50
2019-02-04T11:26:43.036Z,30.20
2019-02-04T11:27:50.289Z,31.50
2019-02-04T11:28:43.172Z,38.70
2019-02-04T11:29:43.170Z,41.30
2019-02-04T11:30:43.058Z,41.00
2019-02-04T11:31:43.063Z,39.80
2019-02-04T11:32:42.994Z,38.10
2019-02-04T11:33:43.056Z,37.70
2019-02-04T11:34:43.090Z,38.30
2019-02-04T11:35:42.975Z,36.30
2019-02-04T11:36:42.960Z,35.70
2019-02-04T11:37:42.937Z,38.40
2019-02-04T11:38:42.923Z,39.80
2019-02-04T11:39:42.954Z,38.40
2019-02-04T11:40:45.792Z,40.00
2019-02-04T11:41:42.892Z,35.30
2019-02-04T11:42:42.905Z,32.60
2019-02-04T11:43:42.987Z,37.60
2019-02-04T11:44:42.875Z,35.60
2019-02-04T11:45:42.943Z,35.10
2019-02-04T11:46:42.902Z,30.70
2019-02-04T11:47:42.793Z,33.00
2019-02-04T11:48:42.822Z,30.10
2019-02-04T11:49:42.799Z,27.30
2019-02-04T11:50:42.755Z,26.30
2019-02-04T11:51:42.756Z,28.30
2019-02-04T11:52:42.741Z,30.50
2019-02-04T11:53:42.757Z,30.20
2019-02-04T11:54:42.714Z,26.40
2019-02-04T11:55:42.776Z,31.50
2019-02-04T11:56:42.729Z,29.60
2019-02-04T11:57:42.720Z,25.90
2019-02-04T11:58:42.695Z,24.70
2019-02-04T11:59:42.692Z,27.20
2019-02-04T12:00:42.667Z,24.30
2019-02-04T12:01:42.656Z,24.50
2019-02-04T12:02:42.706Z,27.80
2019-02-04T12:03:42.622Z,27.60
2019-02-04T12:04:42.644Z,28.20
2019-02-04T12:05:42.593Z,30.80
2019-02-04T12:06:42.608Z,24.20
2019-02-04T12:07:42.582Z,23.10
2019-02-04T12:08:42.581Z,24.80
2019-02-04T12:09:42.598Z,25.20
2019-02-04T12:10:42.549Z,24.30
2019-02-04T12:11:42.551Z,24.60
2019-02-04T12:12:42.540Z,25.60
2019-02-04T12:13:42.545Z,28.60
2019-02-04T12:14:42.504Z,25.30
2019-02-04T12:15:42.486Z,25.00
2019-02-04T12:16:42.502Z,24.80
2019-02-04T12:17:42.466Z,23.40
2019-02-04T12:18:42.516Z,23.00
2019-02-04T12:19:42.449Z,25.10
2019-02-04T12:20:42.431Z,26.80
2019-02-04T12:21:42.417Z,26.30
2019-02-04T12:22:42.412Z,21.30
2019-02-04T12:23:42.398Z,24.30
2019-02-04T12:24:42.690Z,24.20
2019-02-04T12:25:42.378Z,23.60
2019-02-04T12:26:42.376Z,24.80
2019-02-04T12:27:42.359Z,22.20
2019-02-04T12:28:42.347Z,25.50
2019-02-04T12:29:42.355Z,22.20
2019-02-04T12:30:42.324Z,21.60
2019-02-04T12:31:42.352Z,24.00
2019-02-04T12:32:42.306Z,20.50
2019-02-04T12:33:42.330Z,21.90
2019-02-04T12:34:49.370Z,23.40
2019-02-04T12:35:49.316Z,28.30
2019-02-04T12:36:42.307Z,26.70
2019-02-04T12:37:42.234Z,30.70
2019-02-04T12:38:42.232Z,33.00
2019-02-04T12:39:42.212Z,32.60
2019-02-04T12:40:42.211Z,30.10
2019-02-04T12:41:42.187Z,29.50
2019-02-04T12:42:42.207Z,29.30
2019-02-04T12:43:42.170Z,29.30
2019-02-04T12:44:42.159Z,31.10
2019-02-04T12:45:42.144Z,26.80
2019-02-04T12:46:42.152Z,32.10
2019-02-04T12:47:42.139Z,28.80
2019-02-04T12:48:42.131Z,30.10
2019-02-04T12:49:42.118Z,26.80
2019-02-04T12:50:42.092Z,29.30
2019-02-04T12:51:42.082Z,30.30
2019-02-04T12:52:42.127Z,27.60